Terminal Aerodrome Forecast
Issued by NWS Albany, NY

Home | Current Version | Previous Version | Text Only | Print | Product List | Glossary On
Versions: 1 2 3 4 5 6 7 8 9 10 11 12 13 14 15 16 17 18 19 20 21 22 23 24 25 26
000
FTUS41 KALY 311200 AAA
TAFPOU
TAF AMD
KPOU 311249Z 3113/0112 VRB02KT P6SM SCT003
      TEMPO 3113/3114 BKN003
     FM311400 VRB03KT P6SM SCT050
     FM311700 06004KT P6SM OVC050
     FM010200 02004KT P6SM OVC040
     FM011000 02007KT P6SM OVC030=

USA.gov is the U.S. government's official web portal to all federal, state and local government web resources and services.